sensor_id;sensor_type;location;lat;lon;timestamp;P1;durP1;ratioP1;P2;durP2;ratioP2
56005;SDS011;41888;44.696;10.522;2022-08-01T00:01:41;4.70;;;2.42;;
56005;SDS011;41888;44.696;10.522;2022-08-01T00:04:08;8.88;;;2.90;;
56005;SDS011;41888;44.696;10.522;2022-08-01T00:06:34;6.03;;;2.55;;
56005;SDS011;41888;44.696;10.522;2022-08-01T00:09:00;4.68;;;2.40;;
56005;SDS011;41888;44.696;10.522;2022-08-01T00:11:29;3.63;;;2.25;;
56005;SDS011;41888;44.696;10.522;2022-08-01T00:13:55;3.53;;;2.35;;
56005;SDS011;41888;44.696;10.522;2022-08-01T00:16:22;3.63;;;2.65;;
56005;SDS011;41888;44.696;10.522;2022-08-01T00:18:49;5.05;;;2.30;;
56005;SDS011;41888;44.696;10.522;2022-08-01T00:21:16;6.28;;;2.30;;
56005;SDS011;41888;44.696;10.522;2022-08-01T00:23:43;7.30;;;2.95;;
56005;SDS011;41888;44.696;10.522;2022-08-01T00:26:10;5.80;;;2.67;;
56005;SDS011;41888;44.696;10.522;2022-08-01T00:28:37;5.53;;;2.42;;
56005;SDS011;41888;44.696;10.522;2022-08-01T00:31:03;7.07;;;2.38;;
56005;SDS011;41888;44.696;10.522;2022-08-01T00:33:29;4.20;;;2.47;;
56005;SDS011;41888;44.696;10.522;2022-08-01T00:35:55;4.97;;;2.90;;
56005;SDS011;41888;44.696;10.522;2022-08-01T00:38:22;3.58;;;2.10;;
56005;SDS011;41888;44.696;10.522;2022-08-01T00:40:49;3.42;;;2.28;;
56005;SDS011;41888;44.696;10.522;2022-08-01T00:43:16;7.72;;;2.58;;
56005;SDS011;41888;44.696;10.522;2022-08-01T00:45:42;5.38;;;2.85;;
56005;SDS011;41888;44.696;10.522;2022-08-01T00:48:08;4.00;;;2.40;;
56005;SDS011;41888;44.696;10.522;2022-08-01T00:50:34;4.82;;;2.65;;
56005;SDS011;41888;44.696;10.522;2022-08-01T00:53:01;5.35;;;2.47;;
56005;SDS011;41888;44.696;10.522;2022-08-01T00:55:27;5.47;;;2.88;;
56005;SDS011;41888;44.696;10.522;2022-08-01T00:57:54;3.95;;;2.28;;
56005;SDS011;41888;44.696;10.522;2022-08-01T01:00:21;3.85;;;2.50;;
56005;SDS011;41888;44.696;10.522;2022-08-01T01:02:48;5.13;;;2.53;;
56005;SDS011;41888;44.696;10.522;2022-08-01T01:05:14;4.07;;;2.55;;
56005;SDS011;41888;44.696;10.522;2022-08-01T01:10:37;8.48;;;3.20;;
56005;SDS011;41888;44.696;10.522;2022-08-01T01:16:03;4.80;;;2.50;;
56005;SDS011;41888;44.696;10.522;2022-08-01T01:18:43;7.25;;;2.92;;
56005;SDS011;41888;44.696;10.522;2022-08-01T01:23:50;5.22;;;2.90;;
56005;SDS011;41888;44.696;10.522;2022-08-01T01:31:43;5.25;;;2.50;;
56005;SDS011;41888;44.696;10.522;2022-08-01T01:34:17;5.60;;;3.00;;
56005;SDS011;41888;44.696;10.522;2022-08-01T01:36:47;5.65;;;3.17;;
56005;SDS011;41888;44.696;10.522;2022-08-01T01:39:15;6.95;;;2.92;;
56005;SDS011;41888;44.696;10.522;2022-08-01T01:41:43;7.22;;;3.00;;
56005;SDS011;41888;44.696;10.522;2022-08-01T01:44:11;4.45;;;2.88;;
56005;SDS011;41888;44.696;10.522;2022-08-01T01:46:38;6.22;;;2.63;;
56005;SDS011;41888;44.696;10.522;2022-08-01T01:49:05;5.95;;;3.03;;
56005;SDS011;41888;44.696;10.522;2022-08-01T01:51:35;4.75;;;3.20;;
56005;SDS011;41888;44.696;10.522;2022-08-01T01:54:03;5.47;;;3.00;;
56005;SDS011;41888;44.696;10.522;2022-08-01T01:56:31;5.78;;;2.50;;
56005;SDS011;41888;44.696;10.522;2022-08-01T01:59:00;7.53;;;2.95;;
56005;SDS011;41888;44.696;10.522;2022-08-01T02:01:29;4.90;;;3.10;;
56005;SDS011;41888;44.696;10.522;2022-08-01T02:03:58;5.05;;;2.85;;
56005;SDS011;41888;44.696;10.522;2022-08-01T02:06:27;4.95;;;2.70;;
56005;SDS011;41888;44.696;10.522;2022-08-01T02:08:54;7.47;;;3.05;;
56005;SDS011;41888;44.696;10.522;2022-08-01T02:11:21;6.78;;;3.05;;
56005;SDS011;41888;44.696;10.522;2022-08-01T02:13:51;4.93;;;2.75;;
56005;SDS011;41888;44.696;10.522;2022-08-01T02:16:20;5.60;;;2.88;;
56005;SDS011;41888;44.696;10.522;2022-08-01T02:18:51;7.53;;;3.35;;
56005;SDS011;41888;44.696;10.522;2022-08-01T02:21:19;6.38;;;3.00;;
56005;SDS011;41888;44.696;10.522;2022-08-01T02:23:55;5.97;;;2.90;;
56005;SDS011;41888;44.696;10.522;2022-08-01T02:26:28;5.97;;;2.57;;
56005;SDS011;41888;44.696;10.522;2022-08-01T02:28:56;4.15;;;2.20;;
56005;SDS011;41888;44.696;10.522;2022-08-01T02:31:27;5.70;;;2.50;;
56005;SDS011;41888;44.696;10.522;2022-08-01T02:33:58;4.00;;;2.30;;
56005;SDS011;41888;44.696;10.522;2022-08-01T02:36:30;7.78;;;2.97;;
56005;SDS011;41888;44.696;10.522;2022-08-01T02:39:04;5.65;;;3.08;;
56005;SDS011;41888;44.696;10.522;2022-08-01T02:41:35;4.53;;;2.80;;
56005;SDS011;41888;44.696;10.522;2022-08-01T02:44:09;5.72;;;3.20;;
56005;SDS011;41888;44.696;10.522;2022-08-01T02:46:41;6.28;;;3.15;;
56005;SDS011;41888;44.696;10.522;2022-08-01T02:49:14;4.45;;;2.83;;
56005;SDS011;41888;44.696;10.522;2022-08-01T02:51:44;3.85;;;3.05;;
56005;SDS011;41888;44.696;10.522;2022-08-01T02:54:12;4.13;;;2.60;;
56005;SDS011;41888;44.696;10.522;2022-08-01T02:56:42;6.55;;;3.03;;
56005;SDS011;41888;44.696;10.522;2022-08-01T02:59:13;6.60;;;3.03;;
56005;SDS011;41888;44.696;10.522;2022-08-01T03:01:42;6.10;;;2.80;;
56005;SDS011;41888;44.696;10.522;2022-08-01T03:04:11;5.07;;;2.95;;
56005;SDS011;41888;44.696;10.522;2022-08-01T03:06:39;6.05;;;2.85;;
56005;SDS011;41888;44.696;10.522;2022-08-01T03:09:06;5.97;;;3.20;;
56005;SDS011;41888;44.696;10.522;2022-08-01T03:11:35;6.13;;;3.30;;
56005;SDS011;41888;44.696;10.522;2022-08-01T03:14:05;5.32;;;3.22;;
56005;SDS011;41888;44.696;10.522;2022-08-01T03:16:34;4.93;;;3.35;;
56005;SDS011;41888;44.696;10.522;2022-08-01T03:19:02;6.28;;;2.88;;
56005;SDS011;41888;44.696;10.522;2022-08-01T03:21:31;6.53;;;2.83;;
56005;SDS011;41888;44.696;10.522;2022-08-01T03:23:59;4.47;;;2.85;;
56005;SDS011;41888;44.696;10.522;2022-08-01T03:26:28;4.53;;;2.90;;
56005;SDS011;41888;44.696;10.522;2022-08-01T03:28:57;5.07;;;2.78;;
56005;SDS011;41888;44.696;10.522;2022-08-01T03:31:31;6.70;;;3.20;;
56005;SDS011;41888;44.696;10.522;2022-08-01T03:33:59;6.45;;;3.08;;
56005;SDS011;41888;44.696;10.522;2022-08-01T03:36:26;6.20;;;3.03;;
56005;SDS011;41888;44.696;10.522;2022-08-01T03:38:54;8.60;;;3.08;;
56005;SDS011;41888;44.696;10.522;2022-08-01T03:41:24;8.82;;;3.50;;
56005;SDS011;41888;44.696;10.522;2022-08-01T03:43:56;5.18;;;2.67;;
56005;SDS011;41888;44.696;10.522;2022-08-01T03:46:32;10.68;;;3.15;;
56005;SDS011;41888;44.696;10.522;2022-08-01T03:49:07;5.68;;;2.90;;
56005;SDS011;41888;44.696;10.522;2022-08-01T03:51:42;5.47;;;2.75;;
56005;SDS011;41888;44.696;10.522;2022-08-01T03:54:10;6.07;;;3.08;;
56005;SDS011;41888;44.696;10.522;2022-08-01T03:56:38;4.90;;;2.70;;
56005;SDS011;41888;44.696;10.522;2022-08-01T03:59:06;4.72;;;2.97;;
56005;SDS011;41888;44.696;10.522;2022-08-01T04:01:33;5.80;;;4.13;;
56005;SDS011;41888;44.696;10.522;2022-08-01T04:04:01;5.50;;;3.70;;
56005;SDS011;41888;44.696;10.522;2022-08-01T04:06:30;5.13;;;3.78;;
56005;SDS011;41888;44.696;10.522;2022-08-01T04:08:56;6.32;;;3.78;;
56005;SDS011;41888;44.696;10.522;2022-08-01T04:11:26;6.60;;;3.90;;
56005;SDS011;41888;44.696;10.522;2022-08-01T04:13:53;8.70;;;4.13;;
56005;SDS011;41888;44.696;10.522;2022-08-01T04:16:20;8.57;;;4.93;;
56005;SDS011;41888;44.696;10.522;2022-08-01T04:18:47;5.38;;;4.65;;
56005;SDS011;41888;44.696;10.522;2022-08-01T04:21:14;7.13;;;5.53;;
56005;SDS011;41888;44.696;10.522;2022-08-01T04:23:43;6.53;;;4.78;;
56005;SDS011;41888;44.696;10.522;2022-08-01T04:26:11;7.13;;;5.05;;
56005;SDS011;41888;44.696;10.522;2022-08-01T04:28:39;6.30;;;4.75;;
56005;SDS011;41888;44.696;10.522;2022-08-01T04:31:08;5.93;;;4.15;;
56005;SDS011;41888;44.696;10.522;2022-08-01T04:33:37;4.97;;;3.80;;
56005;SDS011;41888;44.696;10.522;2022-08-01T04:36:07;7.75;;;4.18;;
56005;SDS011;41888;44.696;10.522;2022-08-01T04:38:35;5.53;;;3.67;;
56005;SDS011;41888;44.696;10.522;2022-08-01T04:41:02;6.65;;;3.72;;
56005;SDS011;41888;44.696;10.522;2022-08-01T04:43:31;5.90;;;2.97;;
56005;SDS011;41888;44.696;10.522;2022-08-01T04:45:58;5.63;;;3.33;;
56005;SDS011;41888;44.696;10.522;2022-08-01T04:48:25;3.60;;;2.72;;
56005;SDS011;41888;44.696;10.522;2022-08-01T04:50:52;4.60;;;3.15;;
56005;SDS011;41888;44.696;10.522;2022-08-01T04:53:19;6.97;;;3.22;;
56005;SDS011;41888;44.696;10.522;2022-08-01T04:55:47;6.63;;;3.28;;
56005;SDS011;41888;44.696;10.522;2022-08-01T04:58:14;6.25;;;3.22;;
56005;SDS011;41888;44.696;10.522;2022-08-01T05:00:40;9.18;;;4.20;;
56005;SDS011;41888;44.696;10.522;2022-08-01T05:03:07;5.35;;;3.25;;
56005;SDS011;41888;44.696;10.522;2022-08-01T05:05:33;6.68;;;3.63;;
56005;SDS011;41888;44.696;10.522;2022-08-01T05:08:00;8.02;;;3.40;;
56005;SDS011;41888;44.696;10.522;2022-08-01T05:10:26;4.57;;;2.85;;
56005;SDS011;41888;44.696;10.522;2022-08-01T05:12:53;6.38;;;3.17;;
56005;SDS011;41888;44.696;10.522;2022-08-01T05:15:19;5.88;;;3.33;;
56005;SDS011;41888;44.696;10.522;2022-08-01T05:17:46;6.20;;;3.53;;
56005;SDS011;41888;44.696;10.522;2022-08-01T05:20:12;4.50;;;2.88;;
56005;SDS011;41888;44.696;10.522;2022-08-01T05:22:38;4.43;;;3.53;;
56005;SDS011;41888;44.696;10.522;2022-08-01T05:25:06;6.25;;;3.20;;
56005;SDS011;41888;44.696;10.522;2022-08-01T05:27:33;4.85;;;2.92;;
56005;SDS011;41888;44.696;10.522;2022-08-01T05:30:05;5.45;;;3.10;;
56005;SDS011;41888;44.696;10.522;2022-08-01T05:32:32;4.10;;;2.85;;
56005;SDS011;41888;44.696;10.522;2022-08-01T05:34:58;4.90;;;3.47;;
56005;SDS011;41888;44.696;10.522;2022-08-01T05:37:25;7.18;;;4.05;;
56005;SDS011;41888;44.696;10.522;2022-08-01T05:39:52;9.20;;;4.60;;
56005;SDS011;41888;44.696;10.522;2022-08-01T05:42:21;11.45;;;5.47;;
56005;SDS011;41888;44.696;10.522;2022-08-01T05:44:47;13.68;;;5.00;;
56005;SDS011;41888;44.696;10.522;2022-08-01T05:47:15;9.70;;;4.97;;
56005;SDS011;41888;44.696;10.522;2022-08-01T05:49:41;8.27;;;4.75;;
56005;SDS011;41888;44.696;10.522;2022-08-01T05:52:09;7.38;;;4.75;;
56005;SDS011;41888;44.696;10.522;2022-08-01T05:54:35;9.77;;;3.83;;
56005;SDS011;41888;44.696;10.522;2022-08-01T05:57:01;7.07;;;4.30;;
56005;SDS011;41888;44.696;10.522;2022-08-01T05:59:28;7.03;;;4.47;;
56005;SDS011;41888;44.696;10.522;2022-08-01T06:01:55;6.18;;;3.88;;
56005;SDS011;41888;44.696;10.522;2022-08-01T06:04:21;9.35;;;3.53;;
56005;SDS011;41888;44.696;10.522;2022-08-01T06:06:47;6.65;;;3.47;;
56005;SDS011;41888;44.696;10.522;2022-08-01T06:09:13;5.80;;;3.15;;
56005;SDS011;41888;44.696;10.522;2022-08-01T06:11:40;4.53;;;3.08;;
56005;SDS011;41888;44.696;10.522;2022-08-01T06:14:06;5.72;;;2.53;;
56005;SDS011;41888;44.696;10.522;2022-08-01T06:16:32;5.13;;;2.63;;
56005;SDS011;41888;44.696;10.522;2022-08-01T06:18:58;5.07;;;2.90;;
56005;SDS011;41888;44.696;10.522;2022-08-01T06:21:25;4.35;;;2.35;;
56005;SDS011;41888;44.696;10.522;2022-08-01T06:23:51;2.92;;;2.30;;
56005;SDS011;41888;44.696;10.522;2022-08-01T06:26:18;3.03;;;2.25;;
56005;SDS011;41888;44.696;10.522;2022-08-01T06:28:44;6.90;;;2.90;;
56005;SDS011;41888;44.696;10.522;2022-08-01T06:31:10;6.90;;;2.53;;
56005;SDS011;41888;44.696;10.522;2022-08-01T06:33:38;6.20;;;2.92;;
56005;SDS011;41888;44.696;10.522;2022-08-01T06:36:04;4.38;;;2.40;;
56005;SDS011;41888;44.696;10.522;2022-08-01T06:38:31;4.07;;;2.50;;
56005;SDS011;41888;44.696;10.522;2022-08-01T06:40:57;8.18;;;2.50;;
56005;SDS011;41888;44.696;10.522;2022-08-01T06:43:23;3.50;;;2.10;;
56005;SDS011;41888;44.696;10.522;2022-08-01T06:45:49;4.85;;;2.60;;
56005;SDS011;41888;44.696;10.522;2022-08-01T06:48:15;5.60;;;2.70;;
56005;SDS011;41888;44.696;10.522;2022-08-01T06:50:42;7.82;;;1.98;;
56005;SDS011;41888;44.696;10.522;2022-08-01T06:53:08;5.30;;;2.20;;
56005;SDS011;41888;44.696;10.522;2022-08-01T06:55:34;2.58;;;2.00;;
56005;SDS011;41888;44.696;10.522;2022-08-01T06:58:00;3.83;;;2.25;;
56005;SDS011;41888;44.696;10.522;2022-08-01T07:00:27;3.03;;;1.95;;
56005;SDS011;41888;44.696;10.522;2022-08-01T07:02:54;6.35;;;1.80;;
56005;SDS011;41888;44.696;10.522;2022-08-01T07:05:21;3.90;;;1.75;;
56005;SDS011;41888;44.696;10.522;2022-08-01T07:07:48;5.45;;;1.70;;
56005;SDS011;41888;44.696;10.522;2022-08-01T07:10:14;2.40;;;1.77;;
56005;SDS011;41888;44.696;10.522;2022-08-01T07:12:41;4.80;;;2.30;;
56005;SDS011;41888;44.696;10.522;2022-08-01T07:15:10;3.00;;;1.90;;
56005;SDS011;41888;44.696;10.522;2022-08-01T07:17:41;3.65;;;2.05;;
56005;SDS011;41888;44.696;10.522;2022-08-01T07:20:08;3.45;;;1.67;;
56005;SDS011;41888;44.696;10.522;2022-08-01T07:22:37;5.78;;;1.80;;
56005;SDS011;41888;44.696;10.522;2022-08-01T07:25:06;2.97;;;1.85;;
56005;SDS011;41888;44.696;10.522;2022-08-01T07:27:33;3.88;;;2.22;;
56005;SDS011;41888;44.696;10.522;2022-08-01T07:30:00;4.20;;;2.08;;
56005;SDS011;41888;44.696;10.522;2022-08-01T07:32:26;5.72;;;2.13;;
56005;SDS011;41888;44.696;10.522;2022-08-01T07:34:54;4.38;;;1.80;;
56005;SDS011;41888;44.696;10.522;2022-08-01T07:37:20;5.30;;;1.70;;
56005;SDS011;41888;44.696;10.522;2022-08-01T07:39:47;7.35;;;2.25;;
56005;SDS011;41888;44.696;10.522;2022-08-01T07:42:13;5.47;;;1.83;;
56005;SDS011;41888;44.696;10.522;2022-08-01T07:44:39;3.10;;;2.15;;
56005;SDS011;41888;44.696;10.522;2022-08-01T07:47:05;5.70;;;2.05;;
56005;SDS011;41888;44.696;10.522;2022-08-01T07:49:32;5.95;;;2.95;;
56005;SDS011;41888;44.696;10.522;2022-08-01T07:51:58;7.15;;;2.20;;
56005;SDS011;41888;44.696;10.522;2022-08-01T07:54:24;22.73;;;4.60;;
56005;SDS011;41888;44.696;10.522;2022-08-01T07:56:52;4.72;;;3.20;;
56005;SDS011;41888;44.696;10.522;2022-08-01T07:59:19;3.63;;;2.15;;
56005;SDS011;41888;44.696;10.522;2022-08-01T08:01:48;3.38;;;2.13;;
56005;SDS011;41888;44.696;10.522;2022-08-01T08:04:16;4.00;;;2.08;;
56005;SDS011;41888;44.696;10.522;2022-08-01T08:06:42;5.53;;;2.38;;
56005;SDS011;41888;44.696;10.522;2022-08-01T08:09:12;5.13;;;2.10;;
56005;SDS011;41888;44.696;10.522;2022-08-01T08:11:39;3.67;;;2.25;;
56005;SDS011;41888;44.696;10.522;2022-08-01T08:14:06;3.38;;;1.83;;
56005;SDS011;41888;44.696;10.522;2022-08-01T08:16:32;5.15;;;2.10;;
56005;SDS011;41888;44.696;10.522;2022-08-01T08:18:58;3.03;;;1.88;;
56005;SDS011;41888;44.696;10.522;2022-08-01T08:21:24;2.92;;;1.60;;
56005;SDS011;41888;44.696;10.522;2022-08-01T08:23:51;2.35;;;1.60;;
56005;SDS011;41888;44.696;10.522;2022-08-01T08:26:36;5.68;;;2.70;;
56005;SDS011;41888;44.696;10.522;2022-08-01T08:29:02;2.53;;;1.90;;
56005;SDS011;41888;44.696;10.522;2022-08-01T08:31:28;2.30;;;1.70;;
56005;SDS011;41888;44.696;10.522;2022-08-01T08:33:55;4.30;;;1.90;;
56005;SDS011;41888;44.696;10.522;2022-08-01T08:36:21;9.15;;;2.50;;
56005;SDS011;41888;44.696;10.522;2022-08-01T08:38:47;1.85;;;1.50;;
56005;SDS011;41888;44.696;10.522;2022-08-01T08:41:13;4.45;;;2.00;;
56005;SDS011;41888;44.696;10.522;2022-08-01T08:43:40;2.95;;;1.73;;
56005;SDS011;41888;44.696;10.522;2022-08-01T08:46:06;2.42;;;1.45;;
56005;SDS011;41888;44.696;10.522;2022-08-01T08:48:34;2.03;;;1.48;;
56005;SDS011;41888;44.696;10.522;2022-08-01T08:51:21;3.45;;;1.70;;
56005;SDS011;41888;44.696;10.522;2022-08-01T08:53:52;4.22;;;1.92;;
56005;SDS011;41888;44.696;10.522;2022-08-01T08:56:20;3.38;;;1.58;;
56005;SDS011;41888;44.696;10.522;2022-08-01T08:58:48;5.75;;;1.50;;
56005;SDS011;41888;44.696;10.522;2022-08-01T09:01:15;2.78;;;1.63;;
56005;SDS011;41888;44.696;10.522;2022-08-01T09:03:42;3.22;;;1.90;;
56005;SDS011;41888;44.696;10.522;2022-08-01T09:06:09;3.25;;;1.67;;
56005;SDS011;41888;44.696;10.522;2022-08-01T09:08:36;3.35;;;1.80;;
56005;SDS011;41888;44.696;10.522;2022-08-01T09:11:02;5.00;;;2.25;;
56005;SDS011;41888;44.696;10.522;2022-08-01T09:13:29;5.07;;;2.03;;
56005;SDS011;41888;44.696;10.522;2022-08-01T09:15:55;3.25;;;2.40;;
56005;SDS011;41888;44.696;10.522;2022-08-01T09:23:35;6.78;;;2.08;;
56005;SDS011;41888;44.696;10.522;2022-08-01T09:26:11;4.72;;;2.20;;
56005;SDS011;41888;44.696;10.522;2022-08-01T09:28:40;4.53;;;1.80;;
56005;SDS011;41888;44.696;10.522;2022-08-01T09:31:09;7.13;;;2.42;;
56005;SDS011;41888;44.696;10.522;2022-08-01T09:33:53;3.28;;;2.28;;
56005;SDS011;41888;44.696;10.522;2022-08-01T09:36:25;6.28;;;2.05;;
56005;SDS011;41888;44.696;10.522;2022-08-01T09:39:11;5.22;;;1.95;;
56005;SDS011;41888;44.696;10.522;2022-08-01T09:41:39;5.53;;;2.50;;
56005;SDS011;41888;44.696;10.522;2022-08-01T09:44:05;6.00;;;2.30;;
56005;SDS011;41888;44.696;10.522;2022-08-01T09:46:32;3.72;;;2.33;;
56005;SDS011;41888;44.696;10.522;2022-08-01T09:49:04;3.35;;;2.00;;
56005;SDS011;41888;44.696;10.522;2022-08-01T09:51:38;4.10;;;1.55;;
56005;SDS011;41888;44.696;10.522;2022-08-01T09:54:05;4.07;;;2.42;;
56005;SDS011;41888;44.696;10.522;2022-08-01T09:56:36;4.57;;;2.13;;
56005;SDS011;41888;44.696;10.522;2022-08-01T09:59:04;6.05;;;2.05;;
56005;SDS011;41888;44.696;10.522;2022-08-01T10:04:17;4.30;;;1.70;;
56005;SDS011;41888;44.696;10.522;2022-08-01T10:06:47;2.72;;;1.90;;
56005;SDS011;41888;44.696;10.522;2022-08-01T10:09:26;6.18;;;2.28;;
56005;SDS011;41888;44.696;10.522;2022-08-01T10:11:54;6.53;;;2.50;;
56005;SDS011;41888;44.696;10.522;2022-08-01T10:14:22;3.28;;;2.20;;
56005;SDS011;41888;44.696;10.522;2022-08-01T10:16:49;5.65;;;2.20;;
56005;SDS011;41888;44.696;10.522;2022-08-01T10:19:22;8.23;;;2.60;;
56005;SDS011;41888;44.696;10.522;2022-08-01T10:21:50;3.90;;;2.03;;
56005;SDS011;41888;44.696;10.522;2022-08-01T10:24:19;5.68;;;2.10;;
56005;SDS011;41888;44.696;10.522;2022-08-01T10:27:19;4.78;;;2.13;;
56005;SDS011;41888;44.696;10.522;2022-08-01T10:29:42;3.30;;;1.77;;
56005;SDS011;41888;44.696;10.522;2022-08-01T10:32:14;2.25;;;1.60;;
56005;SDS011;41888;44.696;10.522;2022-08-01T10:34:42;2.80;;;1.40;;
56005;SDS011;41888;44.696;10.522;2022-08-01T10:37:09;3.42;;;1.45;;
56005;SDS011;41888;44.696;10.522;2022-08-01T10:39:37;5.07;;;1.42;;
56005;SDS011;41888;44.696;10.522;2022-08-01T10:42:05;2.95;;;1.75;;
56005;SDS011;41888;44.696;10.522;2022-08-01T10:44:34;3.03;;;1.50;;
56005;SDS011;41888;44.696;10.522;2022-08-01T10:49:38;2.25;;;1.45;;
56005;SDS011;41888;44.696;10.522;2022-08-01T10:52:15;2.40;;;1.60;;
56005;SDS011;41888;44.696;10.522;2022-08-01T10:54:42;2.47;;;1.40;;
56005;SDS011;41888;44.696;10.522;2022-08-01T10:57:09;2.38;;;1.65;;
56005;SDS011;41888;44.696;10.522;2022-08-01T10:59:37;4.28;;;1.58;;
56005;SDS011;41888;44.696;10.522;2022-08-01T11:02:25;3.45;;;1.67;;
56005;SDS011;41888;44.696;10.522;2022-08-01T11:05:04;2.15;;;1.38;;
56005;SDS011;41888;44.696;10.522;2022-08-01T11:07:53;3.72;;;1.58;;
56005;SDS011;41888;44.696;10.522;2022-08-01T11:13:08;2.05;;;1.27;;
56005;SDS011;41888;44.696;10.522;2022-08-01T11:15:36;2.10;;;1.50;;
56005;SDS011;41888;44.696;10.522;2022-08-01T11:18:28;3.45;;;1.50;;
56005;SDS011;41888;44.696;10.522;2022-08-01T11:20:59;3.30;;;1.73;;
56005;SDS011;41888;44.696;10.522;2022-08-01T11:23:29;3.30;;;1.83;;
56005;SDS011;41888;44.696;10.522;2022-08-01T11:26:12;4.78;;;1.50;;
56005;SDS011;41888;44.696;10.522;2022-08-01T11:28:39;4.03;;;1.80;;
56005;SDS011;41888;44.696;10.522;2022-08-01T11:38:39;3.40;;;1.80;;
56005;SDS011;41888;44.696;10.522;2022-08-01T11:41:13;5.97;;;1.70;;
56005;SDS011;41888;44.696;10.522;2022-08-01T11:54:37;3.55;;;1.80;;
56005;SDS011;41888;44.696;10.522;2022-08-01T11:57:07;3.05;;;1.45;;
56005;SDS011;41888;44.696;10.522;2022-08-01T11:59:41;2.03;;;1.42;;
56005;SDS011;41888;44.696;10.522;2022-08-01T12:02:16;3.15;;;1.60;;
56005;SDS011;41888;44.696;10.522;2022-08-01T12:04:54;4.03;;;1.88;;
56005;SDS011;41888;44.696;10.522;2022-08-01T12:07:25;2.42;;;1.50;;
56005;SDS011;41888;44.696;10.522;2022-08-01T12:10:13;5.68;;;1.83;;
56005;SDS011;41888;44.696;10.522;2022-08-01T12:12:44;2.95;;;1.50;;
56005;SDS011;41888;44.696;10.522;2022-08-01T12:15:15;2.08;;;1.52;;
56005;SDS011;41888;44.696;10.522;2022-08-01T12:17:44;2.20;;;1.60;;
56005;SDS011;41888;44.696;10.522;2022-08-01T12:20:14;2.22;;;1.65;;
56005;SDS011;41888;44.696;10.522;2022-08-01T12:22:44;2.92;;;1.42;;
56005;SDS011;41888;44.696;10.522;2022-08-01T12:25:11;3.45;;;1.60;;
56005;SDS011;41888;44.696;10.522;2022-08-01T12:27:40;2.50;;;1.60;;
56005;SDS011;41888;44.696;10.522;2022-08-01T12:30:08;2.15;;;1.50;;
56005;SDS011;41888;44.696;10.522;2022-08-01T12:32:40;3.03;;;1.27;;
56005;SDS011;41888;44.696;10.522;2022-08-01T12:35:09;4.55;;;1.42;;
56005;SDS011;41888;44.696;10.522;2022-08-01T12:40:12;6.95;;;1.38;;
56005;SDS011;41888;44.696;10.522;2022-08-01T12:42:41;4.07;;;1.58;;
56005;SDS011;41888;44.696;10.522;2022-08-01T12:45:10;2.13;;;1.48;;
56005;SDS011;41888;44.696;10.522;2022-08-01T12:47:40;2.97;;;1.35;;
56005;SDS011;41888;44.696;10.522;2022-08-01T12:50:23;3.05;;;1.48;;
56005;SDS011;41888;44.696;10.522;2022-08-01T12:52:52;2.65;;;1.80;;
56005;SDS011;41888;44.696;10.522;2022-08-01T12:57:49;4.63;;;1.50;;
56005;SDS011;41888;44.696;10.522;2022-08-01T13:00:28;3.13;;;1.60;;
56005;SDS011;41888;44.696;10.522;2022-08-01T13:03:03;4.50;;;1.48;;
56005;SDS011;41888;44.696;10.522;2022-08-01T13:08:34;3.72;;;1.60;;
56005;SDS011;41888;44.696;10.522;2022-08-01T13:11:07;2.08;;;1.30;;
56005;SDS011;41888;44.696;10.522;2022-08-01T13:13:39;2.13;;;1.38;;
56005;SDS011;41888;44.696;10.522;2022-08-01T13:16:25;3.60;;;1.48;;
56005;SDS011;41888;44.696;10.522;2022-08-01T13:18:52;2.92;;;1.45;;
56005;SDS011;41888;44.696;10.522;2022-08-01T13:21:24;3.03;;;1.50;;
56005;SDS011;41888;44.696;10.522;2022-08-01T13:29:13;2.42;;;1.40;;
56005;SDS011;41888;44.696;10.522;2022-08-01T13:31:41;6.47;;;1.65;;
56005;SDS011;41888;44.696;10.522;2022-08-01T13:34:08;2.40;;;1.50;;
56005;SDS011;41888;44.696;10.522;2022-08-01T13:36:35;1.95;;;1.52;;
56005;SDS011;41888;44.696;10.522;2022-08-01T13:39:03;2.83;;;1.45;;
56005;SDS011;41888;44.696;10.522;2022-08-01T13:41:48;1.92;;;1.20;;
56005;SDS011;41888;44.696;10.522;2022-08-01T13:44:15;4.70;;;1.60;;
56005;SDS011;41888;44.696;10.522;2022-08-01T13:46:41;2.33;;;1.33;;
56005;SDS011;41888;44.696;10.522;2022-08-01T13:49:08;5.90;;;1.60;;
56005;SDS011;41888;44.696;10.522;2022-08-01T13:51:36;3.85;;;1.40;;
56005;SDS011;41888;44.696;10.522;2022-08-01T13:54:03;2.97;;;1.60;;
56005;SDS011;41888;44.696;10.522;2022-08-01T13:56:30;9.73;;;2.55;;
56005;SDS011;41888;44.696;10.522;2022-08-01T13:58:57;3.33;;;1.63;;
56005;SDS011;41888;44.696;10.522;2022-08-01T14:01:23;2.88;;;1.67;;
56005;SDS011;41888;44.696;10.522;2022-08-01T14:03:50;2.45;;;1.52;;
56005;SDS011;41888;44.696;10.522;2022-08-01T14:06:16;1.83;;;1.45;;
56005;SDS011;41888;44.696;10.522;2022-08-01T14:08:45;1.77;;;1.27;;
56005;SDS011;41888;44.696;10.522;2022-08-01T14:11:11;3.50;;;1.50;;
56005;SDS011;41888;44.696;10.522;2022-08-01T14:13:38;3.20;;;1.55;;
56005;SDS011;41888;44.696;10.522;2022-08-01T14:16:05;3.55;;;1.50;;
56005;SDS011;41888;44.696;10.522;2022-08-01T14:18:32;2.05;;;1.50;;
56005;SDS011;41888;44.696;10.522;2022-08-01T14:20:58;3.65;;;1.50;;
56005;SDS011;41888;44.696;10.522;2022-08-01T14:23:25;3.83;;;1.67;;
56005;SDS011;41888;44.696;10.522;2022-08-01T14:25:52;1.77;;;1.30;;
56005;SDS011;41888;44.696;10.522;2022-08-01T14:28:18;4.93;;;2.10;;
56005;SDS011;41888;44.696;10.522;2022-08-01T14:30:44;1.95;;;1.55;;
56005;SDS011;41888;44.696;10.522;2022-08-01T14:33:11;3.50;;;1.40;;
56005;SDS011;41888;44.696;10.522;2022-08-01T14:35:38;1.60;;;1.40;;
56005;SDS011;41888;44.696;10.522;2022-08-01T14:38:05;2.28;;;1.40;;
56005;SDS011;41888;44.696;10.522;2022-08-01T14:40:32;5.88;;;1.40;;
56005;SDS011;41888;44.696;10.522;2022-08-01T14:42:59;3.55;;;1.25;;
56005;SDS011;41888;44.696;10.522;2022-08-01T14:45:26;2.00;;;1.40;;
56005;SDS011;41888;44.696;10.522;2022-08-01T14:47:53;2.83;;;1.45;;
56005;SDS011;41888;44.696;10.522;2022-08-01T14:50:19;2.50;;;1.48;;
56005;SDS011;41888;44.696;10.522;2022-08-01T14:52:46;3.30;;;1.52;;
56005;SDS011;41888;44.696;10.522;2022-08-01T14:55:12;5.35;;;1.58;;
56005;SDS011;41888;44.696;10.522;2022-08-01T14:57:58;3.45;;;1.65;;
56005;SDS011;41888;44.696;10.522;2022-08-01T15:00:25;3.22;;;1.60;;
56005;SDS011;41888;44.696;10.522;2022-08-01T15:02:51;2.80;;;1.45;;
56005;SDS011;41888;44.696;10.522;2022-08-01T15:05:18;5.88;;;1.40;;
56005;SDS011;41888;44.696;10.522;2022-08-01T15:07:44;3.47;;;1.60;;
56005;SDS011;41888;44.696;10.522;2022-08-01T15:10:10;4.13;;;1.50;;
56005;SDS011;41888;44.696;10.522;2022-08-01T15:12:36;3.70;;;1.60;;
56005;SDS011;41888;44.696;10.522;2022-08-01T15:15:03;2.50;;;1.58;;
56005;SDS011;41888;44.696;10.522;2022-08-01T15:17:30;4.35;;;1.48;;
56005;SDS011;41888;44.696;10.522;2022-08-01T15:19:59;2.20;;;1.40;;
56005;SDS011;41888;44.696;10.522;2022-08-01T15:22:30;3.20;;;1.83;;
56005;SDS011;41888;44.696;10.522;2022-08-01T15:24:57;2.17;;;1.48;;
56005;SDS011;41888;44.696;10.522;2022-08-01T15:27:24;3.17;;;1.40;;
56005;SDS011;41888;44.696;10.522;2022-08-01T15:29:51;4.18;;;1.50;;
56005;SDS011;41888;44.696;10.522;2022-08-01T15:32:18;4.38;;;1.88;;
56005;SDS011;41888;44.696;10.522;2022-08-01T15:34:45;4.55;;;1.55;;
56005;SDS011;41888;44.696;10.522;2022-08-01T15:37:11;2.72;;;1.45;;
56005;SDS011;41888;44.696;10.522;2022-08-01T15:39:39;4.07;;;1.48;;
56005;SDS011;41888;44.696;10.522;2022-08-01T15:42:08;5.97;;;2.20;;